Time;durP1;ratioP1;P1;durP2;ratioP2;P2;SDS_P1;SDS_P2;PMS_P1;PMS_P2;Temp;Humidity;BMP_temperature;BMP_pressure;BME280_temperature;BME280_humidity;BME280_pressure;Samples;Min_cycle;Max_cycle;Signal;HPM_P1;HPM_P2
2023/03/29 00:02:55;;;;;;;8.88;5.10;;;22.90;31.30;;;;;;6155693;28;80459;-60
2023/03/29 00:05:56;;;;;;;8.07;4.95;;;23.00;31.10;;;;;;6155446;28;80381;-61
2023/03/29 00:08:56;;;;;;;9.20;5.25;;;23.00;31.10;;;;;;6154389;28;81955;-61
2023/03/29 00:11:57;;;;;;;7.70;4.60;;;23.00;31.00;;;;;;6155067;28;80601;-60
2023/03/29 00:14:58;;;;;;;8.65;4.97;;;23.00;30.80;;;;;;6154990;28;80444;-61
2023/03/29 00:17:58;;;;;;;7.55;4.78;;;23.00;30.90;;;;;;6154476;28;80864;-61
2023/03/29 00:20:59;;;;;;;8.68;4.70;;;23.10;30.90;;;;;;6155895;28;83098;-72
2023/03/29 00:23:59;;;;;;;9.52;5.50;;;23.10;30.90;;;;;;6136747;28;80431;-72
2023/03/29 00:27:00;;;;;;;9.55;5.28;;;23.10;30.80;;;;;;6154722;28;80502;-72
2023/03/29 00:30:04;;;;;;;11.20;5.28;;;23.10;30.80;;;;;;6153173;28;80398;-72
2023/03/29 00:33:04;;;;;;;9.85;5.68;;;23.10;30.80;;;;;;6155423;28;80144;-72
2023/03/29 00:36:05;;;;;;;10.70;5.57;;;23.10;30.90;;;;;;6155248;28;80455;-72
2023/03/29 00:39:06;;;;;;;8.63;5.50;;;23.10;30.80;;;;;;6154988;28;80864;-59
2023/03/29 00:42:06;;;;;;;7.97;5.13;;;23.20;30.90;;;;;;6154863;28;80156;-59
2023/03/29 00:45:07;;;;;;;9.30;5.72;;;23.20;30.80;;;;;;6154414;28;83433;-59
2023/03/29 00:48:08;;;;;;;9.43;5.90;;;23.20;30.80;;;;;;6155105;28;81235;-60
2023/03/29 00:51:08;;;;;;;9.35;5.82;;;23.20;30.90;;;;;;6155438;28;80482;-59
2023/03/29 00:54:09;;;;;;;10.05;6.07;;;23.20;30.80;;;;;;6153454;28;81597;-59
2023/03/29 00:57:10;;;;;;;9.57;5.28;;;23.20;30.90;;;;;;6136764;28;81931;-60
2023/03/29 01:00:10;;;;;;;10.23;6.47;;;23.20;30.90;;;;;;6147931;28;81579;-61
2023/03/29 01:03:12;;;;;;;11.23;5.82;;;23.20;30.80;;;;;;6151673;28;80939;-60
2023/03/29 01:06:12;;;;;;;10.52;6.95;;;23.20;30.80;;;;;;6119846;28;83059;-60
2023/03/29 01:09:13;;;;;;;9.82;6.05;;;23.20;30.70;;;;;;6150923;28;82186;-60
2023/03/29 01:12:15;;;;;;;11.10;6.53;;;23.30;30.70;;;;;;6132808;28;83627;-60
2023/03/29 01:15:16;;;;;;;11.70;6.38;;;23.30;30.70;;;;;;6136080;28;82794;-60
2023/03/29 01:18:20;;;;;;;10.48;5.72;;;23.30;30.80;;;;;;6126917;28;83348;-60
2023/03/29 01:21:22;;;;;;;11.70;6.38;;;23.30;30.90;;;;;;6148876;28;80700;-61
2023/03/29 01:24:23;;;;;;;14.85;7.03;;;23.30;30.90;;;;;;6132491;28;83658;-61
2023/03/29 01:27:24;;;;;;;12.07;6.78;;;23.30;31.10;;;;;;6135731;28;81377;-60
2023/03/29 01:30:24;;;;;;;12.18;6.65;;;23.30;30.90;;;;;;6152513;28;80896;-60
2023/03/29 01:33:25;;;;;;;13.75;7.20;;;23.30;31.00;;;;;;6150351;28;80320;-60
2023/03/29 01:36:26;;;;;;;10.20;6.13;;;23.30;31.00;;;;;;6150702;28;81081;-60
2023/03/29 01:39:26;;;;;;;14.93;7.63;;;23.30;30.90;;;;;;6150634;28;83804;-60
2023/03/29 01:42:27;;;;;;;14.80;7.20;;;23.30;31.10;;;;;;6132244;28;81621;-61
2023/03/29 01:45:27;;;;;;;12.10;6.80;;;23.30;31.30;;;;;;6151905;28;84587;-60
2023/03/29 01:48:28;;;;;;;14.88;7.38;;;23.30;31.40;;;;;;6153414;28;83824;-61
2023/03/29 01:51:28;;;;;;;13.98;6.90;;;23.30;31.60;;;;;;6154075;28;80556;-67
2023/03/29 01:54:29;;;;;;;11.73;6.57;;;23.30;31.80;;;;;;6153275;28;80248;-69
2023/03/29 01:57:30;;;;;;;14.70;7.28;;;23.30;31.70;;;;;;6123106;28;81998;-69
2023/03/29 02:00:30;;;;;;;13.70;6.60;;;23.40;31.90;;;;;;6152755;28;81993;-69
2023/03/29 02:03:32;;;;;;;16.27;7.63;;;23.40;31.90;;;;;;6153209;28;81686;-68
2023/03/29 02:06:33;;;;;;;14.95;7.13;;;23.40;31.90;;;;;;6153796;28;81060;-67
2023/03/29 02:09:34;;;;;;;13.88;8.10;;;23.40;31.90;;;;;;6117234;28;84815;-67
2023/03/29 02:12:37;;;;;;;12.70;7.57;;;23.40;31.90;;;;;;6121109;28;87854;-68
2023/03/29 02:15:38;;;;;;;11.63;7.70;;;23.40;31.90;;;;;;6132161;28;81643;-69
2023/03/29 02:18:39;;;;;;;14.38;7.50;;;23.40;31.90;;;;;;6131975;28;81920;-69
2023/03/29 02:21:41;;;;;;;12.90;7.25;;;23.40;31.90;;;;;;6129034;28;82187;-69
2023/03/29 02:24:43;;;;;;;14.98;8.10;;;23.40;31.90;;;;;;6146062;28;80704;-71
2023/03/29 02:27:44;;;;;;;12.82;7.70;;;23.40;32.10;;;;;;6133612;28;81886;-71
2023/03/29 02:30:45;;;;;;;15.38;8.43;;;23.40;32.00;;;;;;6136098;28;80523;-70
2023/03/29 02:33:45;;;;;;;15.48;8.05;;;23.50;32.20;;;;;;6134292;28;83638;-69
2023/03/29 02:36:49;;;;;;;12.35;7.43;;;23.40;32.10;;;;;;6134414;28;83230;-68
2023/03/29 02:39:50;;;;;;;14.10;8.15;;;23.40;32.30;;;;;;6134444;28;83445;-68
2023/03/29 02:42:50;;;;;;;13.73;7.50;;;23.50;32.30;;;;;;6152422;28;80306;-69
2023/03/29 02:45:51;;;;;;;15.23;8.57;;;23.50;32.30;;;;;;6135214;28;82279;-61
2023/03/29 02:48:52;;;;;;;12.52;7.28;;;23.50;32.30;;;;;;6151976;28;81773;-59
2023/03/29 02:51:53;;;;;;;14.82;8.25;;;23.50;32.20;;;;;;6137407;28;83603;-60
2023/03/29 02:54:54;;;;;;;16.73;7.85;;;23.40;32.00;;;;;;6110918;28;82925;-59
2023/03/29 02:57:55;;;;;;;16.27;8.50;;;23.50;32.10;;;;;;6149970;28;80479;-59
2023/03/29 03:00:55;;;;;;;15.75;7.75;;;23.40;32.00;;;;;;6117782;28;82293;-60
2023/03/29 03:03:56;;;;;;;14.93;7.95;;;23.40;31.90;;;;;;6150625;28;80884;-60
2023/03/29 03:06:57;;;;;;;19.58;8.35;;;23.40;32.10;;;;;;6150156;28;82543;-59
2023/03/29 03:09:57;;;;;;;13.70;7.60;;;23.50;32.20;;;;;;6151433;28;87156;-60
2023/03/29 03:12:58;;;;;;;16.50;7.82;;;23.40;31.90;;;;;;6152634;28;80497;-58
2023/03/29 03:15:59;;;;;;;12.15;7.38;;;23.40;31.90;;;;;;6150615;28;82931;-59
2023/03/29 03:19:00;;;;;;;16.60;7.85;;;23.40;32.00;;;;;;6149209;28;83261;-59
2023/03/29 03:22:01;;;;;;;13.55;8.25;;;23.50;31.90;;;;;;6141928;28;83271;-60
2023/03/29 03:25:02;;;;;;;13.90;7.82;;;23.50;32.00;;;;;;6150859;28;82841;-75
2023/03/29 03:31:09;;;;;;;14.02;7.22;;;23.50;32.10;;;;;;6114532;28;81035;-72
2023/03/29 03:34:38;;;;;;;14.43;7.80;;;23.50;32.10;;;;;;6110900;28;82954;-71
2023/03/29 03:37:39;;;;;;;14.73;7.35;;;23.50;32.10;;;;;;6099678;28;84869;-72
2023/03/29 03:40:41;;;;;;;18.20;8.52;;;23.50;32.20;;;;;;6093692;28;82969;-74
2023/03/29 03:43:44;;;;;;;16.17;7.57;;;23.50;32.30;;;;;;6111061;28;83207;-68
2023/03/29 03:46:46;;;;;;;17.90;8.00;;;23.50;32.40;;;;;;6109705;28;80835;-67
2023/03/29 03:49:47;;;;;;;14.95;7.15;;;23.50;32.60;;;;;;6117892;28;82942;-69
2023/03/29 03:52:48;;;;;;;15.18;7.85;;;23.50;32.40;;;;;;6120909;28;81367;-69
2023/03/29 03:55:49;;;;;;;14.52;7.18;;;23.50;32.20;;;;;;6097542;28;82919;-70
2023/03/29 03:58:55;;;;;;;;;;;23.50;32.10;;;;;;6107947;28;83695;-69
2023/03/29 04:01:57;;;;;;;13.93;6.90;;;23.50;31.90;;;;;;6119168;28;83221;-74
2023/03/29 04:05:01;;;;;;;16.67;8.13;;;23.50;31.80;;;;;;6115295;28;81168;-72
2023/03/29 04:08:07;;;;;;;17.52;7.90;;;23.50;31.50;;;;;;6113013;28;80831;-64
2023/03/29 04:11:27;;;;;;;13.30;8.10;;;23.50;31.70;;;;;;6102134;28;80544;-66
2023/03/29 04:14:30;;;;;;;17.83;8.88;;;23.50;31.40;;;;;;6111739;28;85203;-67
2023/03/29 04:17:38;;;;;;;16.10;7.90;;;23.50;31.30;;;;;;6109815;28;82825;-62
2023/03/29 04:20:53;;;;;;;15.65;7.45;;;23.50;31.20;;;;;;6115252;28;83927;-64
2023/03/29 04:23:56;;;;;;;15.48;8.05;;;23.50;31.10;;;;;;6103679;28;81560;-63
2023/03/29 04:26:58;;;;;;;13.88;7.82;;;23.50;30.90;;;;;;6101883;28;81376;-74
2023/03/29 04:29:58;;;;;;;13.63;7.57;;;23.50;30.90;;;;;;6133058;28;81218;-69
2023/03/29 04:33:17;;;;;;;14.52;8.00;;;23.40;30.70;;;;;;6107253;28;81368;-68
2023/03/29 04:36:22;;;;;;;15.37;7.07;;;23.30;31.10;;;;;;6116554;28;83743;-61
2023/03/29 04:39:30;;;;;;;13.90;7.45;;;23.40;30.90;;;;;;6118083;28;82616;-64
2023/03/29 04:42:33;;;;;;;12.73;7.28;;;23.40;31.00;;;;;;6113121;28;82372;-57
2023/03/29 04:45:33;;;;;;;14.48;7.68;;;23.40;31.10;;;;;;6117000;28;81401;-61
2023/03/29 04:48:43;;;;;;;14.80;7.85;;;23.40;30.90;;;;;;6108048;28;82447;-59
2023/03/29 04:51:45;;;;;;;14.73;8.27;;;23.40;30.50;;;;;;6110770;28;82691;-65
2023/03/29 04:54:45;;;;;;;14.57;7.78;;;23.30;30.20;;;;;;6074931;28;83635;-63
2023/03/29 04:57:57;;;;;;;12.52;7.45;;;23.30;30.40;;;;;;6108897;28;83577;-58
2023/03/29 05:01:04;;;;;;;12.60;7.72;;;23.30;30.10;;;;;;6081979;28;83250;-58
2023/03/29 05:04:17;;;;;;;15.88;7.30;;;23.30;30.00;;;;;;6080804;28;87707;-66
2023/03/29 05:07:30;;;;;;;12.68;7.18;;;23.40;30.00;;;;;;6085851;28;81615;-67
2023/03/29 05:10:31;;;;;;;10.68;6.40;;;23.40;30.30;;;;;;6086013;28;83229;-68
2023/03/29 05:13:32;;;;;;;13.48;6.72;;;23.40;30.10;;;;;;6085031;28;81654;-64
2023/03/29 05:16:33;;;;;;;14.02;7.28;;;23.40;29.90;;;;;;6069346;28;82440;-64
2023/03/29 05:19:35;;;;;;;15.43;7.57;;;23.40;29.70;;;;;;6083829;28;83206;-63
2023/03/29 05:22:37;;;;;;;14.73;7.25;;;23.30;29.60;;;;;;6082962;28;82046;-64
2023/03/29 05:25:40;;;;;;;17.73;7.00;;;23.30;29.90;;;;;;6082597;28;83131;-63
2023/03/29 05:28:41;;;;;;;11.40;6.72;;;23.40;30.00;;;;;;6082675;28;82137;-61
2023/03/29 05:31:41;;;;;;;17.88;7.68;;;23.40;29.90;;;;;;6078587;28;81679;-59
2023/03/29 05:34:42;;;;;;;14.68;7.43;;;23.40;29.70;;;;;;6084032;28;81979;-59
2023/03/29 05:37:46;;;;;;;10.63;6.30;;;23.40;29.60;;;;;;6081595;28;83494;-65
2023/03/29 05:40:46;;;;;;;13.60;7.05;;;23.40;29.50;;;;;;5945347;28;83702;-65
2023/03/29 05:44:07;;;;;;;11.55;6.30;;;23.40;29.40;;;;;;6038662;28;81851;-66
2023/03/29 05:47:09;;;;;;;13.27;6.47;;;23.40;29.50;;;;;;6085490;28;80673;-66
2023/03/29 05:50:10;;;;;;;11.57;6.28;;;23.40;29.50;;;;;;6115047;28;80848;-65
2023/03/29 05:53:10;;;;;;;13.43;7.18;;;23.50;29.60;;;;;;6067890;28;83032;-65
2023/03/29 05:56:14;;;;;;;12.15;6.80;;;23.40;29.60;;;;;;6092956;28;83434;-65
2023/03/29 05:59:16;;;;;;;12.77;6.72;;;23.50;29.70;;;;;;6102181;28;83550;-64
2023/03/29 06:02:17;;;;;;;14.00;7.22;;;23.40;29.50;;;;;;6082049;28;83312;-65
2023/03/29 06:05:26;;;;;;;12.20;5.60;;;23.40;29.60;;;;;;6082874;28;82676;-66
2023/03/29 06:08:34;;;;;;;11.93;6.35;;;23.40;29.50;;;;;;6093350;28;85687;-61
2023/03/29 06:12:11;;;;;;;9.35;5.72;;;23.40;29.50;;;;;;6096178;28;81818;-63
2023/03/29 06:15:23;;;;;;;11.63;6.20;;;23.40;29.40;;;;;;6078349;28;82723;-62
2023/03/29 06:18:26;;;;;;;9.40;5.47;;;23.50;29.60;;;;;;6069818;28;82011;-62
2023/03/29 06:21:27;;;;;;;11.02;6.10;;;23.50;29.50;;;;;;6068694;28;80733;-62
2023/03/29 06:24:28;;;;;;;9.60;5.85;;;23.50;29.50;;;;;;6080139;28;82820;-61
2023/03/29 06:27:35;;;;;;;10.93;5.60;;;23.50;29.50;;;;;;6109606;28;83441;-68
2023/03/29 06:30:36;;;;;;;9.68;5.53;;;23.50;29.50;;;;;;6136070;28;83541;-68
2023/03/29 06:33:37;;;;;;;8.65;4.80;;;23.50;29.50;;;;;;6148938;28;83311;-68
2023/03/29 06:36:56;;;;;;;8.25;5.20;;;23.50;29.40;;;;;;6150475;28;83416;-69
2023/03/29 06:39:57;;;;;;;8.65;5.25;;;23.50;29.50;;;;;;6099894;28;85949;-70
2023/03/29 06:43:17;;;;;;;9.98;5.20;;;23.60;29.50;;;;;;6148764;28;88059;-69
2023/03/29 06:46:27;;;;;;;9.75;5.40;;;23.60;29.50;;;;;;6131783;28;83429;-61
2023/03/29 06:49:30;;;;;;;9.73;5.45;;;23.60;29.50;;;;;;6149355;28;83344;-60
2023/03/29 06:52:42;;;;;;;8.88;5.20;;;23.60;29.40;;;;;;6149542;28;82881;-60
2023/03/29 06:55:42;;;;;;;6.95;4.47;;;23.60;29.40;;;;;;6148916;28;86710;-61
2023/03/29 06:59:05;;;;;;;9.77;5.00;;;23.60;29.50;;;;;;6137779;28;82724;-61
2023/03/29 07:02:26;;;;;;;6.95;4.43;;;23.60;29.50;;;;;;6151119;28;80843;-70
2023/03/29 07:05:39;;;;;;;13.02;5.55;;;23.60;29.50;;;;;;6149861;28;81778;-62
2023/03/29 07:08:42;;;;;;;7.63;5.10;;;23.60;29.50;;;;;;6148183;28;83200;-62
2023/03/29 07:11:50;;;;;;;7.78;4.65;;;23.60;29.50;;;;;;6148455;28;82107;-63
2023/03/29 07:14:58;;;;;;;8.70;4.88;;;23.60;29.40;;;;;;6149320;28;83274;-63
2023/03/29 07:18:10;;;;;;;10.85;4.60;;;23.70;29.40;;;;;;6149640;28;81460;-63
2023/03/29 07:21:11;;;;;;;7.70;4.53;;;23.70;29.30;;;;;;6149756;28;83459;-63
2023/03/29 07:24:11;;;;;;;7.72;4.18;;;23.70;29.30;;;;;;6130497;28;80979;-64
2023/03/29 07:27:13;;;;;;;7.13;4.25;;;23.80;29.30;;;;;;6147858;28;81672;-63
2023/03/29 07:30:15;;;;;;;8.68;4.53;;;23.80;29.20;;;;;;6101996;28;83274;-64
2023/03/29 07:33:15;;;;;;;8.30;4.53;;;23.80;29.20;;;;;;6115334;28;82195;-62
2023/03/29 07:36:23;;;;;;;13.40;4.82;;;23.80;29.10;;;;;;6132557;28;82230;-62
2023/03/29 07:39:25;;;;;;;6.90;4.30;;;23.80;29.20;;;;;;6145963;28;83055;-71
2023/03/29 07:42:45;;;;;;;7.22;3.90;;;23.80;29.10;;;;;;6142291;28;81507;-73
2023/03/29 07:45:51;;;;;;;8.75;4.32;;;23.90;29.20;;;;;;6132724;28;83265;-73
2023/03/29 07:48:55;;;;;;;11.40;5.38;;;23.90;29.30;;;;;;6149053;28;80679;-72
2023/03/29 07:51:56;;;;;;;8.40;4.55;;;23.90;29.20;;;;;;6147537;28;82804;-71
2023/03/29 07:54:57;;;;;;;8.73;5.30;;;23.90;29.20;;;;;;6147682;28;84181;-70
2023/03/29 07:58:13;;;;;;;9.55;4.45;;;23.90;29.20;;;;;;6145108;28;86443;-67
2023/03/29 08:01:14;;;;;;;8.13;4.55;;;24.00;29.30;;;;;;6146779;28;83519;-68
2023/03/29 08:04:33;;;;;;;8.90;4.70;;;24.00;29.30;;;;;;6145325;28;84839;-69
2023/03/29 08:08:00;;;;;;;11.32;5.13;;;24.10;29.30;;;;;;6132266;28;80668;-67
2023/03/29 08:11:16;;;;;;;10.30;4.20;;;24.00;29.70;;;;;;6145578;28;82362;-69
2023/03/29 08:14:37;;;;;;;8.80;4.38;;;24.10;29.30;;;;;;6146852;28;81789;-70
2023/03/29 08:17:45;;;;;;;7.78;4.70;;;24.10;29.10;;;;;;6144370;28;82556;-61
2023/03/29 08:20:46;;;;;;;6.65;4.18;;;24.10;29.10;;;;;;6147104;28;83006;-60
2023/03/29 08:23:46;;;;;;;7.90;3.88;;;24.10;29.10;;;;;;6150267;28;80578;-61
2023/03/29 08:26:52;;;;;;;8.57;4.47;;;24.10;29.10;;;;;;6143940;28;82886;-61
2023/03/29 08:29:54;;;;;;;6.47;4.25;;;24.10;29.20;;;;;;6140152;28;81791;-60
2023/03/29 08:32:55;;;;;;;6.07;3.83;;;24.10;29.20;;;;;;6110073;28;83255;-60
2023/03/29 08:35:56;;;;;;;6.72;4.13;;;24.20;29.20;;;;;;6109062;28;82114;-62
2023/03/29 08:39:04;;;;;;;5.35;3.58;;;24.20;29.30;;;;;;6109441;28;83510;-61
2023/03/29 08:42:06;;;;;;;5.95;3.70;;;24.20;29.20;;;;;;6103395;28;83333;-61
2023/03/29 08:45:06;;;;;;;6.00;3.53;;;24.20;29.20;;;;;;6109947;28;83329;-61
2023/03/29 08:48:07;;;;;;;5.70;3.30;;;24.20;29.00;;;;;;6111265;28;83549;-61
2023/03/29 08:51:11;;;;;;;6.25;3.47;;;24.20;29.10;;;;;;6108906;28;83449;-64
2023/03/29 08:54:12;;;;;;;7.15;3.40;;;24.10;28.40;;;;;;6101020;28;82722;-62
2023/03/29 08:57:48;;;;;;;6.57;4.00;;;22.90;26.60;;;;;;6052383;28;80768;-63
2023/03/29 09:01:01;;;;;;;10.02;4.75;;;22.70;26.00;;;;;;6104748;28;86525;-62
2023/03/29 09:04:09;;;;;;;8.43;4.20;;;22.70;26.50;;;;;;6107847;28;85721;-63
2023/03/29 09:07:38;;;;;;;6.78;3.65;;;22.70;26.30;;;;;;6054185;28;81504;-63
2023/03/29 09:10:39;;;;;;;5.93;3.83;;;22.80;25.90;;;;;;6108829;28;83028;-62
2023/03/29 09:13:40;;;;;;;4.93;3.22;;;22.80;25.60;;;;;;6108205;28;83301;-68
2023/03/29 09:16:42;;;;;;;4.95;3.42;;;22.70;25.60;;;;;;6108591;28;82095;-69
2023/03/29 09:19:42;;;;;;;7.55;3.70;;;22.70;25.80;;;;;;6108762;28;82529;-66
2023/03/29 09:22:43;;;;;;;5.53;3.90;;;22.80;26.10;;;;;;6105914;28;83321;-68
2023/03/29 09:25:44;;;;;;;7.07;4.30;;;22.80;26.20;;;;;;6127620;28;80275;-67
2023/03/29 09:28:45;;;;;;;7.35;3.88;;;22.70;25.90;;;;;;6090844;28;81344;-69
2023/03/29 09:31:46;;;;;;;5.60;3.58;;;22.70;26.00;;;;;;6129724;28;83627;-68
2023/03/29 09:34:49;;;;;;;6.20;3.30;;;22.70;26.00;;;;;;6126956;28;83153;-68
2023/03/29 09:37:53;;;;;;;6.63;3.42;;;22.60;26.30;;;;;;6127909;28;83781;-67
2023/03/29 09:40:54;;;;;;;8.48;3.60;;;22.70;26.20;;;;;;6150192;28;85723;-67
2023/03/29 09:43:56;;;;;;;6.35;3.42;;;22.70;26.00;;;;;;6124356;28;83341;-68
2023/03/29 09:47:00;;;;;;;6.72;3.22;;;22.80;26.20;;;;;;6119179;28;83472;-69
2023/03/29 09:50:05;;;;;;;4.40;2.50;;;22.80;26.10;;;;;;6119574;28;85725;-68
2023/03/29 09:53:06;;;;;;;4.30;2.80;;;22.80;26.00;;;;;;6106149;28;83440;-67
2023/03/29 09:56:10;;;;;;;5.25;2.80;;;22.70;25.80;;;;;;6131825;28;81912;-68
2023/03/29 09:59:21;;;;;;;3.88;2.10;;;22.80;26.30;;;;;;6147778;28;80477;-67
2023/03/29 10:02:22;;;;;;;4.30;2.40;;;22.80;26.00;;;;;;6151074;28;80314;-67
2023/03/29 10:05:23;;;;;;;5.35;2.42;;;22.80;25.70;;;;;;6128958;28;83329;-68
2023/03/29 10:08:25;;;;;;;2.92;1.95;;;22.80;25.80;;;;;;6128640;28;86341;-68
2023/03/29 10:11:27;;;;;;;3.67;2.55;;;22.70;25.70;;;;;;6134139;28;82303;-69
2023/03/29 10:14:28;;;;;;;2.88;1.80;;;22.70;25.80;;;;;;6152417;28;80690;-68
2023/03/29 10:17:32;;;;;;;3.25;1.98;;;22.80;25.50;;;;;;6150763;28;80550;-70
2023/03/29 10:20:32;;;;;;;5.43;2.85;;;22.80;25.70;;;;;;6150503;28;80271;-68
2023/03/29 10:23:33;;;;;;;4.72;2.72;;;22.80;25.80;;;;;;6140871;28;80926;-68
2023/03/29 10:26:35;;;;;;;5.55;2.08;;;22.80;25.70;;;;;;6151079;28;80349;-69
2023/03/29 10:29:35;;;;;;;2.67;1.90;;;22.80;25.90;;;;;;6137413;28;82812;-69
2023/03/29 10:32:36;;;;;;;5.85;3.67;;;22.80;25.50;;;;;;6151334;28;84580;-69
2023/03/29 10:35:37;;;;;;;3.72;2.90;;;22.80;25.50;;;;;;6149553;28;80633;-69
2023/03/29 10:38:38;;;;;;;4.70;2.65;;;22.80;25.50;;;;;;6150392;28;82252;-67
2023/03/29 10:41:39;;;;;;;7.38;2.55;;;22.90;25.60;;;;;;6127952;28;81551;-68
2023/03/29 10:44:40;;;;;;;4.18;2.47;;;22.80;25.50;;;;;;6147283;28;80586;-69
2023/03/29 10:47:40;;;;;;;6.15;2.55;;;22.80;25.50;;;;;;6147511;28;81147;-67
2023/03/29 10:50:41;;;;;;;3.83;2.25;;;22.80;25.30;;;;;;6147552;28;82241;-65
2023/03/29 10:53:42;;;;;;;3.78;2.15;;;22.80;25.40;;;;;;6149126;28;80503;-67
2023/03/29 10:56:42;;;;;;;4.25;2.25;;;22.80;25.50;;;;;;6132957;28;82237;-69
2023/03/29 10:59:43;;;;;;;3.58;2.03;;;22.80;25.40;;;;;;6150117;28;80491;-69
2023/03/29 11:02:43;;;;;;;3.95;2.55;;;22.90;25.40;;;;;;6147300;28;81113;-63
2023/03/29 11:05:45;;;;;;;3.33;2.45;;;22.90;25.30;;;;;;6148003;28;80659;-65
2023/03/29 11:08:45;;;;;;;2.85;2.17;;;22.90;25.30;;;;;;6147160;28;82649;-64
2023/03/29 11:11:46;;;;;;;3.33;2.47;;;22.90;25.10;;;;;;6148132;28;80567;-64
2023/03/29 11:14:46;;;;;;;4.53;2.15;;;22.80;25.30;;;;;;6149744;28;81350;-65
2023/03/29 11:17:49;;;;;;;4.65;2.38;;;22.80;25.40;;;;;;6147051;28;82333;-63
2023/03/29 11:20:50;;;;;;;2.53;2.03;;;22.80;25.20;;;;;;6147390;28;80733;-62
2023/03/29 11:23:50;;;;;;;3.00;1.95;;;22.80;25.40;;;;;;6145008;28;81126;-64
2023/03/29 11:26:52;;;;;;;5.00;2.55;;;22.80;25.30;;;;;;6128599;28;80588;-64
2023/03/29 11:29:52;;;;;;;4.28;2.50;;;22.90;25.50;;;;;;6131592;28;87482;-64
2023/03/29 11:32:53;;;;;;;3.90;2.42;;;22.90;25.30;;;;;;6119446;28;81588;-64
2023/03/29 11:35:55;;;;;;;3.30;2.13;;;22.90;25.50;;;;;;6111761;28;80658;-64
2023/03/29 11:38:55;;;;;;;3.63;2.30;;;22.90;25.30;;;;;;6122236;28;82609;-63
2023/03/29 11:41:56;;;;;;;2.90;2.30;;;22.90;25.00;;;;;;6124151;28;80606;-63
2023/03/29 11:44:57;;;;;;;4.82;2.53;;;22.80;25.10;;;;;;6121226;28;80798;-63
2023/03/29 11:47:57;;;;;;;3.53;2.63;;;22.90;25.30;;;;;;6124253;28;80427;-64
2023/03/29 11:50:58;;;;;;;4.68;2.88;;;22.80;24.90;;;;;;6117638;28;82124;-63
2023/03/29 11:53:58;;;;;;;5.32;2.95;;;22.80;24.80;;;;;;6120570;28;84649;-63
2023/03/29 11:56:59;;;;;;;8.38;2.38;;;22.90;24.90;;;;;;6125902;28;81418;-63
2023/03/29 12:00:00;;;;;;;2.95;2.10;;;22.90;24.90;;;;;;6128121;28;80380;-63
2023/03/29 12:03:01;;;;;;;2.75;2.00;;;22.90;24.90;;;;;;6093524;28;80084;-64
2023/03/29 12:06:03;;;;;;;3.95;2.10;;;22.80;24.90;;;;;;6128808;28;81813;-62
2023/03/29 12:09:04;;;;;;;4.05;2.25;;;22.80;24.60;;;;;;6128593;28;80905;-62
2023/03/29 12:12:04;;;;;;;3.13;1.90;;;22.80;24.80;;;;;;6129101;28;81379;-63
2023/03/29 12:15:05;;;;;;;5.32;2.13;;;22.80;24.70;;;;;;6128358;28;81116;-71
2023/03/29 12:18:06;;;;;;;3.13;1.90;;;22.90;24.60;;;;;;6129665;28;80628;-71
2023/03/29 12:21:07;;;;;;;4.32;2.72;;;22.80;24.70;;;;;;6128822;28;80426;-70
2023/03/29 12:24:08;;;;;;;4.78;2.45;;;22.90;25.10;;;;;;6088836;28;82813;-72
2023/03/29 12:27:09;;;;;;;3.30;1.95;;;23.00;24.90;;;;;;6088071;28;81900;-69
2023/03/29 12:30:09;;;;;;;3.70;2.28;;;22.90;24.60;;;;;;6141489;28;80470;-66
2023/03/29 12:33:10;;;;;;;3.05;2.10;;;22.90;24.70;;;;;;6117522;28;81730;-70
2023/03/29 12:36:33;;;;;;;4.75;2.80;;;22.90;24.60;;;;;;6144995;28;80536;-64
2023/03/29 12:39:37;;;;;;;7.60;2.83;;;22.90;24.80;;;;;;6152654;28;81585;-66
2023/03/29 12:42:56;;;;;;;8.30;2.92;;;23.00;24.90;;;;;;6148365;28;80396;-66
2023/03/29 12:46:23;;;;;;;3.88;2.45;;;23.10;25.30;;;;;;6095901;28;85284;-70
2023/03/29 12:49:23;;;;;;;3.33;2.08;;;23.20;25.70;;;;;;6153294;28;82307;-70
2023/03/29 12:52:25;;;;;;;4.10;2.45;;;23.30;26.10;;;;;;6153030;28;83406;-66
2023/03/29 12:55:26;;;;;;;4.20;1.98;;;23.30;26.30;;;;;;6138977;28;81578;-66
2023/03/29 12:58:27;;;;;;;6.38;2.75;;;23.40;26.70;;;;;;6149535;28;80791;-68
2023/03/29 13:01:27;;;;;;;13.35;5.10;;;23.50;27.40;;;;;;6146288;28;85830;-66
2023/03/29 13:04:28;;;;;;;9.63;4.15;;;23.60;28.80;;;;;;6118646;28;81351;-66
2023/03/29 13:07:28;;;;;;;12.80;4.38;;;23.60;28.70;;;;;;6125447;28;82557;-69
2023/03/29 13:10:29;;;;;;;7.72;3.65;;;23.60;28.60;;;;;;6149183;28;80745;-69
2023/03/29 13:13:29;;;;;;;9.23;4.10;;;23.70;28.50;;;;;;6131728;28;82174;-69
2023/03/29 13:16:30;;;;;;;12.52;4.10;;;23.70;28.80;;;;;;6147349;28;80552;-69
2023/03/29 13:19:30;;;;;;;10.45;3.50;;;23.70;29.00;;;;;;6130736;28;80909;-66
2023/03/29 13:22:31;;;;;;;18.27;3.90;;;23.80;29.00;;;;;;6151193;28;80886;-68
2023/03/29 13:25:32;;;;;;;11.10;3.58;;;23.80;29.30;;;;;;6150982;28;86227;-69
2023/03/29 13:28:32;;;;;;;7.13;2.97;;;23.80;29.30;;;;;;6151109;28;80507;-62
2023/03/29 13:31:33;;;;;;;9.20;3.20;;;23.80;29.30;;;;;;6136244;28;80256;-62
2023/03/29 13:34:34;;;;;;;8.43;2.95;;;23.80;29.20;;;;;;6144981;28;82917;-62
2023/03/29 13:37:35;;;;;;;7.88;3.20;;;23.90;29.30;;;;;;6148746;28;86149;-60
2023/03/29 13:40:35;;;;;;;6.28;2.67;;;23.90;29.30;;;;;;6148604;28;80480;-62
2023/03/29 13:43:36;;;;;;;5.35;2.70;;;23.80;29.50;;;;;;6150513;28;81477;-61
2023/03/29 13:46:37;;;;;;;3.95;2.10;;;23.80;29.70;;;;;;6140610;28;82155;-61
2023/03/29 13:49:37;;;;;;;11.23;2.67;;;23.80;30.20;;;;;;6140882;28;86923;-63
2023/03/29 13:52:38;;;;;;;10.68;2.35;;;23.80;30.00;;;;;;6147295;28;80990;-64
2023/03/29 13:55:38;;;;;;;4.28;1.88;;;23.80;30.30;;;;;;6150132;28;80676;-67
2023/03/29 13:58:40;;;;;;;11.70;3.58;;;23.90;30.50;;;;;;6146934;28;81994;-68
2023/03/29 14:01:41;;;;;;;3.78;2.20;;;23.90;30.60;;;;;;6143948;28;83260;-69
2023/03/29 14:04:42;;;;;;;4.47;1.88;;;24.00;31.10;;;;;;6149674;28;80447;-62
2023/03/29 14:07:43;;;;;;;7.82;2.42;;;24.00;31.40;;;;;;6149882;28;82614;-69
2023/03/29 14:10:43;;;;;;;3.30;1.95;;;24.10;31.20;;;;;;6150288;28;80847;-69
2023/03/29 14:13:44;;;;;;;5.43;2.03;;;24.10;31.60;;;;;;6151531;28;80622;-66
2023/03/29 14:16:44;;;;;;;6.57;1.90;;;24.10;31.70;;;;;;6149219;28;81919;-68
2023/03/29 14:19:45;;;;;;;8.38;2.40;;;24.20;32.30;;;;;;6148023;28;85215;-67
2023/03/29 14:22:45;;;;;;;7.32;2.97;;;24.30;32.60;;;;;;6147243;28;81881;-66
2023/03/29 14:25:46;;;;;;;10.77;2.92;;;24.30;32.70;;;;;;6149724;28;81649;-66
2023/03/29 14:28:46;;;;;;;9.52;2.72;;;24.30;32.80;;;;;;6148312;28;80575;-62
2023/03/29 14:31:48;;;;;;;11.57;3.33;;;24.30;34.10;;;;;;6150078;28;85088;-65
2023/03/29 14:34:49;;;;;;;11.77;3.38;;;24.30;34.00;;;;;;6131713;28;82309;-66
2023/03/29 14:37:50;;;;;;;8.02;3.20;;;24.40;34.40;;;;;;6148297;28;81370;-64
2023/03/29 14:40:50;;;;;;;8.45;3.20;;;24.40;34.70;;;;;;6147490;28;80970;-64
2023/03/29 14:43:51;;;;;;;6.72;2.72;;;24.40;34.80;;;;;;6150563;28;80672;-64
2023/03/29 14:46:51;;;;;;;10.85;2.75;;;24.40;34.20;;;;;;6148901;28;80639;-63
2023/03/29 14:49:53;;;;;;;5.50;2.67;;;24.40;34.50;;;;;;6151301;28;85928;-64
2023/03/29 14:52:53;;;;;;;10.05;3.22;;;24.30;34.60;;;;;;6150678;28;82601;-64
2023/03/29 14:55:54;;;;;;;7.22;2.92;;;24.30;34.60;;;;;;6150699;28;80604;-63
2023/03/29 14:58:55;;;;;;;6.10;2.38;;;24.30;34.70;;;;;;6150755;28;80521;-62
2023/03/29 15:01:56;;;;;;;9.68;3.28;;;24.30;34.90;;;;;;6150857;28;80299;-64
2023/03/29 15:04:56;;;;;;;5.63;2.90;;;24.20;34.90;;;;;;6150810;28;80451;-65
2023/03/29 15:07:57;;;;;;;5.45;2.65;;;24.20;35.10;;;;;;6151757;28;80113;-62
2023/03/29 15:10:57;;;;;;;5.07;2.40;;;24.20;35.10;;;;;;6132374;28;83360;-62
2023/03/29 15:13:58;;;;;;;5.32;2.55;;;24.20;35.30;;;;;;6152410;28;82081;-63
2023/03/29 15:16:58;;;;;;;7.07;2.20;;;24.20;34.40;;;;;;6122818;28;83935;-61
2023/03/29 15:19:59;;;;;;;8.27;2.10;;;24.10;34.10;;;;;;6151681;28;80902;-68
2023/03/29 15:23:00;;;;;;;4.88;2.20;;;24.10;33.70;;;;;;6153074;28;80710;-71
2023/03/29 15:26:00;;;;;;;4.13;2.00;;;24.10;33.60;;;;;;6152798;28;80507;-70
2023/03/29 15:29:01;;;;;;;5.38;2.53;;;24.10;33.50;;;;;;6156344;28;80880;-69
2023/03/29 15:32:02;;;;;;;4.80;1.98;;;24.00;33.20;;;;;;6153334;28;80596;-68
2023/03/29 15:35:03;;;;;;;5.35;2.50;;;24.00;32.90;;;;;;6152561;28;81354;-67
2023/03/29 15:38:05;;;;;;;8.60;3.28;;;24.00;32.80;;;;;;6151154;28;81445;-63
2023/03/29 15:41:07;;;;;;;7.65;2.97;;;23.90;32.60;;;;;;6151204;28;82413;-64
2023/03/29 15:44:07;;;;;;;5.88;2.55;;;23.90;32.40;;;;;;6151894;28;81806;-63
2023/03/29 15:47:08;;;;;;;5.35;2.20;;;23.80;32.10;;;;;;6152275;28;80660;-63
2023/03/29 15:50:09;;;;;;;6.15;2.67;;;23.80;31.90;;;;;;6138737;28;80092;-63
2023/03/29 15:53:10;;;;;;;5.32;2.55;;;23.80;31.80;;;;;;6151313;28;81517;-63